Terminal Aerodrome Forecast
Issued by NWS

Home | Current Version | Previous Version | Text Only | Print | Product List | Glossary On
Versions: 1 2 3 4 5 6 7 8 9 10 11 12 13 14 15 16 17 18 19 20 21 22
000
FTUS43 KDLH 281735
TAFBRD
TAF
KBRD 281735Z 2818/2918 32006KT P6SM VCSH SCT030 BKN080
      TEMPO 2819/2822 5SM -TSRA SCT025 BKN040CB
     FM290100 VRB04KT P6SM SCT050 BKN090
     FM291700 30007KT P6SM VCSH SCT040 BKN070=

USA.gov is the U.S. government's official web portal to all federal, state and local government web resources and services.